Time;durP1;ratioP1;P1;durP2;ratioP2;P2;SDS_P1;SDS_P2;PMS_P1;PMS_P2;Temp;Humidity;BMP_temperature;BMP_pressure;BME280_temperature;BME280_humidity;BME280_pressure;Samples;Min_cycle;Max_cycle;Signal;HPM_P1;HPM_P2
2021/07/17 00:00:29;;;;;;;;;;;;;;;17.34;100.00;96212.75;1050635;28;19917;-65
2021/07/17 00:00:59;;;;;;;;;;;;;;;17.32;100.00;96209.56;1053315;28;19955;-68
2021/07/17 00:01:30;;;;;;;;;;;;;;;17.33;100.00;96204.97;1053757;28;19973;-69
2021/07/17 00:02:01;;;;;;;;;;;;;;;17.35;100.00;96208.13;1058413;28;19915;-68
2021/07/17 00:02:31;;;;;;;;;;;;;;;17.33;100.00;96208.47;1060332;28;19915;-67
2021/07/17 00:03:03;;;;;;;;;;;;;;;17.35;100.00;96210.84;1054618;28;19923;-68
2021/07/17 00:03:33;;;;;;;;;;;;;;;17.35;100.00;96203.56;1053852;28;20262;-68
2021/07/17 00:04:03;;;;;;;;;;;;;;;17.36;100.00;96207.84;1055689;28;19995;-67
2021/07/17 00:04:34;;;;;;;;;;;;;;;17.36;100.00;96207.84;1049342;28;19908;-67
2021/07/17 00:05:07;;;;;;;;;;;;;;;17.37;100.00;96209.44;1049215;28;19917;-67
2021/07/17 00:05:38;;;;;;;;;;;;;;;17.36;100.00;96209.75;1049086;28;19905;-67
2021/07/17 00:06:08;;;;;;;;;;;;;;;17.35;100.00;96208.97;1047405;28;20290;-66
2021/07/17 00:06:38;;;;;;;;;;;;;;;17.36;100.00;96213.25;1049363;28;19939;-66
2021/07/17 00:07:09;;;;;;;;;;;;;;;17.35;100.00;96208.97;1053514;28;19908;-70
2021/07/17 00:07:39;;;;;;;;;;;;;;;17.35;100.00;96208.97;1048775;28;19909;-66
2021/07/17 00:08:09;;;;;;;;;;;;;;;17.36;100.00;96212.47;1049201;28;19923;-66
2021/07/17 00:08:40;;;;;;;;;;;;;;;17.34;100.00;96210.03;1048855;28;19919;-66
2021/07/17 00:09:10;;;;;;;;;;;;;;;17.35;100.00;96210.84;1048616;28;19916;-68
2021/07/17 00:09:40;;;;;;;;;;;;;;;17.33;100.00;96208.47;1054190;28;19974;-67
2021/07/17 00:10:20;;;;;;;;;;;;;;;17.33;100.00;96210.38;1049604;28;19921;-66
2021/07/17 00:10:50;;;;;;;;;;;;;;;17.32;100.00;96204.16;1049963;28;19912;-66
2021/07/17 00:11:20;;;;;;;;;;;;;;;17.33;100.00;96202.25;1051265;28;19916;-67
2021/07/17 00:11:51;;;;;;;;;;;;;;;17.34;100.00;96214.66;1054172;28;19935;-66
2021/07/17 00:12:21;;;;;;;;;;;;;;;17.33;100.00;96211.16;1057470;28;19907;-67
2021/07/17 00:12:51;;;;;;;;;;;;;;;17.34;100.00;96212.75;1057410;28;19943;-67
2021/07/17 00:13:21;;;;;;;;;;;;;;;17.33;100.00;96204.97;1055077;28;20299;-67
2021/07/17 00:13:52;;;;;;;;;;;;;;;17.31;100.00;96210.69;1053207;28;20002;-68
2021/07/17 00:14:22;;;;;;;;;;;;;;;17.31;100.00;96209.88;1053283;28;19958;-67
2021/07/17 00:14:52;;;;;;;;;;;;;;;17.32;100.00;96212.25;1053120;28;20352;-65
2021/07/17 00:15:23;;;;;;;;;;;;;;;17.33;100.00;96216.56;1054517;28;19951;-66
2021/07/17 00:15:54;;;;;;;;;;;;;;;17.32;100.00;96204.16;1054137;28;21176;-65
2021/07/17 00:16:27;;;;;;;;;;;;;;;17.33;100.00;96210.38;1053970;28;19916;-65
2021/07/17 00:16:58;;;;;;;;;;;;;;;17.33;100.00;96215.75;1053120;28;19911;-65
2021/07/17 00:17:28;;;;;;;;;;;;;;;17.34;100.00;96217.34;1053176;28;19904;-62
2021/07/17 00:17:58;;;;;;;;;;;;;;;17.32;100.00;96219.56;1053073;28;19916;-65
2021/07/17 00:18:29;;;;;;;;;;;;;;;17.32;100.00;96217.66;1054319;28;20054;-66
2021/07/17 00:18:59;;;;;;;;;;;;;;;17.34;100.00;96222.75;1056003;28;19907;-65
2021/07/17 00:19:30;;;;;;;;;;;;;;;17.33;100.00;96213.06;1053247;28;19923;-67
2021/07/17 00:20:00;;;;;;;;;;;;;;;17.33;100.00;96216.56;1053613;28;20482;-66
2021/07/17 00:20:30;;;;;;;;;;;;;;;17.32;100.00;96211.47;1053783;28;20290;-66
2021/07/17 00:21:00;;;;;;;;;;;;;;;17.30;100.00;96213.66;1053354;28;19908;-66
2021/07/17 00:21:31;;;;;;;;;;;;;;;17.30;100.00;96219.06;1054182;28;19916;-68
2021/07/17 00:22:01;;;;;;;;;;;;;;;17.29;100.00;96215.56;1054191;28;19957;-68
2021/07/17 00:22:31;;;;;;;;;;;;;;;17.28;100.00;96213.19;1053794;28;19939;-65
2021/07/17 00:23:02;;;;;;;;;;;;;;;17.27;100.00;96212.38;1053828;28;20368;-64
2021/07/17 00:23:32;;;;;;;;;;;;;;;17.27;100.00;96217.78;1054774;28;19920;-66
2021/07/17 00:24:02;;;;;;;;;;;;;;;17.28;100.00;96215.88;1054098;28;19954;-68
2021/07/17 00:24:33;;;;;;;;;;;;;;;17.24;100.00;96204.88;1055071;28;19916;-68
2021/07/17 00:25:04;;;;;;;;;;;;;;;17.25;100.00;96211.91;1056686;28;19929;-67
2021/07/17 00:25:34;;;;;;;;;;;;;;;17.23;100.00;96206.00;1054305;28;19924;-67
2021/07/17 00:26:05;;;;;;;;;;;;;;;17.24;100.00;96198.69;1054300;28;19904;-66
2021/07/17 00:26:35;;;;;;;;;;;;;;;17.23;100.00;96213.31;1054871;28;19965;-67
2021/07/17 00:27:05;;;;;;;;;;;;;;;17.25;100.00;96203.81;1056023;28;19963;-67
2021/07/17 00:27:36;;;;;;;;;;;;;;;17.24;100.00;96198.69;1056310;28;19920;-67
2021/07/17 00:28:06;;;;;;;;;;;;;;;17.21;100.00;96202.03;1055430;28;20015;-68
2021/07/17 00:28:37;;;;;;;;;;;;;;;17.23;100.00;96202.50;1045917;28;19913;-68
2021/07/17 00:29:07;;;;;;;;;;;;;;;17.22;100.00;96206.31;1045961;28;19940;-66
2021/07/17 00:29:37;;;;;;;;;;;;;;;17.21;100.00;96207.44;1047319;28;20294;-66
2021/07/17 00:30:08;;;;;;;;;;;;;;;17.21;100.00;96204.72;1045809;28;19994;-66
2021/07/17 00:30:38;;;;;;;;;;;;;;;17.22;100.00;96209.00;1050143;28;19919;-66
2021/07/17 00:31:08;;;;;;;;;;;;;;;17.22;100.00;96206.31;1044291;28;19916;-66
2021/07/17 00:31:38;;;;;;;;;;;;;;;17.22;100.00;96209.81;1042777;28;19917;-66
2021/07/17 00:32:09;;;;;;;;;;;;;;;17.22;100.00;96212.50;1048039;28;19913;-66
2021/07/17 00:32:39;;;;;;;;;;;;;;;17.22;100.00;96209.00;1051645;28;19912;-67
2021/07/17 00:33:09;;;;;;;;;;;;;;;17.22;100.00;96214.41;1054569;28;20273;-68
2021/07/17 00:33:40;;;;;;;;;;;;;;;17.21;100.00;96207.44;1046618;28;19913;-73
2021/07/17 00:34:10;;;;;;;;;;;;;;;17.22;100.00;96209.00;1045933;28;19952;-71
2021/07/17 00:34:40;;;;;;;;;;;;;;;17.22;100.00;96212.50;1046086;28;19917;-85
2021/07/17 00:35:11;;;;;;;;;;;;;;;17.22;100.00;96209.81;1040905;28;19913;-70
2021/07/17 00:35:42;;;;;;;;;;;;;;;17.20;100.00;96203.94;1048754;28;20377;-75
2021/07/17 00:36:13;;;;;;;;;;;;;;;17.20;100.00;96209.34;1045016;28;19920;-77
2021/07/17 00:36:43;;;;;;;;;;;;;;;17.21;100.00;96210.13;1047922;28;19916;-70
2021/07/17 00:37:13;;;;;;;;;;;;;;;17.21;100.00;96215.53;1048840;28;19919;-78
2021/07/17 00:37:44;;;;;;;;;;;;;;;17.18;100.00;96213.44;1049711;28;19909;-74
2021/07/17 00:38:14;;;;;;;;;;;;;;;17.17;100.00;96215.34;1052913;28;20384;-73
2021/07/17 00:38:44;;;;;;;;;;;;;;;17.18;100.00;96210.72;1050548;28;19951;-72
2021/07/17 00:39:15;;;;;;;;;;;;;;;17.18;100.00;96218.81;1053132;28;19985;-81
2021/07/17 00:39:45;;;;;;;;;;;;;;;17.17;100.00;96212.63;1048672;28;20319;-72
2021/07/17 00:40:19;;;;;;;;;;;;;;;17.17;100.00;96218.03;1044493;28;19928;-83
2021/07/17 00:40:50;;;;;;;;;;;;;;;17.15;100.00;96217.56;1047702;28;19909;-71
2021/07/17 00:41:20;;;;;;;;;;;;;;;17.16;100.00;96211.03;1048044;28;19913;-81
2021/07/17 00:41:53;;;;;;;;;;;;;;;17.16;100.00;96216.44;1050123;28;20285;-73
2021/07/17 00:42:23;;;;;;;;;;;;;;;17.15;100.00;96212.94;1052997;28;19923;-78
2021/07/17 00:42:53;;;;;;;;;;;;;;;17.15;100.00;96214.84;1053575;28;19940;-72
2021/07/17 00:43:24;;;;;;;;;;;;;;;17.14;100.00;96208.63;1050125;28;19946;-72
2021/07/17 00:43:54;;;;;;;;;;;;;;;17.15;100.00;96215.66;1049003;28;19914;-73
2021/07/17 00:44:24;;;;;;;;;;;;;;;17.15;100.00;96223.75;1048712;28;19962;-72
2021/07/17 00:44:54;;;;;;;;;;;;;;;17.15;100.00;96215.66;1048793;28;19959;-76
2021/07/17 00:45:25;;;;;;;;;;;;;;;17.15;100.00;96214.84;1053330;28;20296;-77
2021/07/17 00:45:55;;;;;;;;;;;;;;;17.15;100.00;96210.25;1050765;28;19911;-73
2021/07/17 00:46:26;;;;;;;;;;;;;;;17.14;100.00;96219.44;1052829;28;19913;-69
2021/07/17 00:46:57;;;;;;;;;;;;;;;17.14;100.00;96214.03;1044569;28;20348;-71
2021/07/17 00:47:27;;;;;;;;;;;;;;;17.13;100.00;96206.25;1044728;28;19975;-71
2021/07/17 00:47:57;;;;;;;;;;;;;;;17.13;100.00;96211.66;1042075;28;19909;-73
2021/07/17 00:48:28;;;;;;;;;;;;;;;17.14;100.00;96205.13;1040504;28;20378;-69
2021/07/17 00:48:59;;;;;;;;;;;;;;;17.13;100.00;96207.03;1041222;28;19906;-76
2021/07/17 00:49:30;;;;;;;;;;;;;;;17.14;100.00;96208.63;1041516;28;19909;-75
2021/07/17 00:50:00;;;;;;;;;;;;;;;17.13;100.00;96203.53;1048125;28;20357;-71
2021/07/17 00:50:30;;;;;;;;;;;;;;;17.13;100.00;96209.75;1049571;28;19939;-67
2021/07/17 00:51:01;;;;;;;;;;;;;;;17.13;100.00;96204.34;1053520;28;20344;-69
2021/07/17 00:51:31;;;;;;;;;;;;;;;17.13;100.00;96203.53;1053713;28;19907;-69
2021/07/17 00:52:01;;;;;;;;;;;;;;;17.14;100.00;96207.84;1050454;28;19943;-72
2021/07/17 00:52:32;;;;;;;;;;;;;;;17.13;100.00;96209.75;1049561;28;20423;-71
2021/07/17 00:53:02;;;;;;;;;;;;;;;17.13;100.00;96201.63;1049360;28;20308;-74
2021/07/17 00:53:32;;;;;;;;;;;;;;;17.14;100.00;96205.13;1045155;28;20297;-72
2021/07/17 00:54:03;;;;;;;;;;;;;;;17.13;100.00;96204.34;1055808;28;19951;-73
2021/07/17 00:54:34;;;;;;;;;;;;;;;17.12;100.00;96208.16;1053769;28;20299;-71
2021/07/17 00:55:04;;;;;;;;;;;;;;;17.13;100.00;96209.75;1049533;28;19940;-72
2021/07/17 00:55:34;;;;;;;;;;;;;;;17.12;100.00;96210.84;1053589;28;19904;-70
2021/07/17 00:56:05;;;;;;;;;;;;;;;17.12;100.00;96205.44;1045420;28;19917;-71
2021/07/17 00:56:35;;;;;;;;;;;;;;;17.11;100.00;96203.84;1045287;28;19905;-78
2021/07/17 00:57:05;;;;;;;;;;;;;;;17.11;100.00;96203.84;1049328;28;19954;-71
2021/07/17 00:57:36;;;;;;;;;;;;;;;17.11;100.00;96206.56;1049291;28;20367;-73
2021/07/17 00:58:06;;;;;;;;;;;;;;;17.11;100.00;96209.25;1048914;28;19978;-70
2021/07/17 00:58:36;;;;;;;;;;;;;;;17.12;100.00;96210.06;1053677;28;19900;-71
2021/07/17 00:59:07;;;;;;;;;;;;;;;17.11;100.00;96211.97;1045066;28;20424;-71
2021/07/17 00:59:37;;;;;;;;;;;;;;;17.11;100.00;96219.25;1041114;28;19910;-71
2021/07/17 01:00:08;;;;;;;;;;;;;;;17.11;100.00;96216.56;1045386;28;19916;-71
2021/07/17 01:00:38;;;;;;;;;;;;;;;17.09;100.00;96210.66;1045324;28;19905;-71
2021/07/17 01:01:09;;;;;;;;;;;;;;;17.10;100.00;96201.47;1055859;28;20049;-71
2021/07/17 01:01:39;;;;;;;;;;;;;;;17.10;100.00;96214.97;1054046;28;19950;-71
2021/07/17 01:02:09;;;;;;;;;;;;;;;17.09;100.00;96208.75;1050668;28;19943;-71
2021/07/17 01:02:44;;;;;;;;;;;;;;;17.09;100.00;96211.44;1049329;28;20400;-71
2021/07/17 01:03:15;;;;;;;;;;;;;;;17.10;100.00;96209.56;1045130;28;19913;-71
2021/07/17 01:03:45;;;;;;;;;;;;;;;17.10;100.00;96218.47;1045221;28;19909;-71
2021/07/17 01:04:15;;;;;;;;;;;;;;;17.10;100.00;96207.66;1045104;28;19917;-73
2021/07/17 01:04:46;;;;;;;;;;;;;;;17.10;100.00;96207.66;1045259;28;19923;-71
2021/07/17 01:05:16;;;;;;;;;;;;;;;17.09;100.00;96211.44;1053523;28;19916;-71
2021/07/17 01:05:47;;;;;;;;;;;;;;;17.10;100.00;96214.97;1054646;28;20338;-70
2021/07/17 01:06:17;;;;;;;;;;;;;;;17.10;100.00;96210.38;1055081;28;19911;-70
2021/07/17 01:06:47;;;;;;;;;;;;;;;17.09;100.00;96211.44;1056217;28;19916;-71
2021/07/17 01:07:17;;;;;;;;;;;;;;;17.10;100.00;96198.78;1051982;28;20397;-70
2021/07/17 01:07:48;;;;;;;;;;;;;;;17.08;100.00;96201.75;1053795;28;19920;-71
2021/07/17 01:08:18;;;;;;;;;;;;;;;17.09;100.00;96199.84;1045306;28;20019;-72
2021/07/17 01:08:49;;;;;;;;;;;;;;;17.09;100.00;96199.84;1041158;28;19968;-83
2021/07/17 01:09:19;;;;;;;;;;;;;;;17.06;100.00;96195.88;1036932;28;19948;-72
2021/07/17 01:09:49;;;;;;;;;;;;;;;17.09;100.00;96197.16;1032962;28;19996;-72
2021/07/17 01:10:20;;;;;;;;;;;;;;;17.07;100.00;96204.78;1036995;28;19913;-72
2021/07/17 01:10:50;;;;;;;;;;;;;;;17.07;100.00;96199.38;1040472;28;19917;-72
2021/07/17 01:11:20;;;;;;;;;;;;;;;17.06;100.00;96200.47;1047384;28;19940;-71
2021/07/17 01:11:51;;;;;;;;;;;;;;;17.05;100.00;96199.69;1053382;28;19916;-70
2021/07/17 01:12:21;;;;;;;;;;;;;;;17.06;100.00;96195.09;1053579;28;20003;-72
2021/07/17 01:12:52;;;;;;;;;;;;;;;17.05;100.00;96197.00;1047428;28;19924;-72
2021/07/17 01:13:22;;;;;;;;;;;;;;;17.04;100.00;96198.06;1041041;28;19916;-71
2021/07/17 01:13:52;;;;;;;;;;;;;;;17.05;100.00;96205.09;1041033;28;19917;-72
2021/07/17 01:14:23;;;;;;;;;;;;;;;17.05;100.00;96199.69;1041097;28;20374;-72
2021/07/17 01:14:53;;;;;;;;;;;;;;;17.06;100.00;96206.69;1042617;28;19913;-72
2021/07/17 01:15:23;;;;;;;;;;;;;;;17.05;100.00;96193.50;1049221;28;19920;-72
2021/07/17 01:15:54;;;;;;;;;;;;;;;17.03;100.00;96201.88;1046520;28;19995;-72
2021/07/17 01:16:24;;;;;;;;;;;;;;;17.04;100.00;96195.38;1045190;28;19944;-72
2021/07/17 01:16:55;;;;;;;;;;;;;;;17.02;100.00;96196.78;1049226;28;20362;-72
2021/07/17 01:17:25;;;;;;;;;;;;;;;17.01;100.00;96201.41;1053469;28;19955;-72
2021/07/17 01:17:56;;;;;;;;;;;;;;;17.02;100.00;96197.59;1053488;28;19916;-72
2021/07/17 01:18:26;;;;;;;;;;;;;;;17.02;100.00;96202.97;1049335;28;19912;-72
2021/07/17 01:18:56;;;;;;;;;;;;;;;17.01;100.00;96189.81;1049233;28;20062;-72
2021/07/17 01:19:27;;;;;;;;;;;;;;;17.02;100.00;96191.38;1045229;28;20316;-72
2021/07/17 01:19:57;;;;;;;;;;;;;;;17.02;100.00;96197.59;1045139;28;19917;-72
2021/07/17 01:20:27;;;;;;;;;;;;;;;17.00;100.00;96202.50;1045224;28;19942;-72
2021/07/17 01:20:57;;;;;;;;;;;;;;;17.00;100.00;96201.72;1049307;28;19917;-72
2021/07/17 01:21:28;;;;;;;;;;;;;;;17.01;100.00;96195.19;1049306;28;19958;-72
2021/07/17 01:21:58;;;;;;;;;;;;;;;17.01;100.00;96195.19;1053718;28;19916;-72
2021/07/17 01:22:28;;;;;;;;;;;;;;;16.99;100.00;96200.09;1041022;28;20354;-76
2021/07/17 01:22:59;;;;;;;;;;;;;;;16.99;100.00;96197.38;1041042;28;19943;-71
2021/07/17 01:23:29;;;;;;;;;;;;;;;16.98;100.00;96202.00;1041037;28;19967;-71
2021/07/17 01:23:59;;;;;;;;;;;;;;;16.99;100.00;96200.88;1036955;28;19920;-71
2021/07/17 01:24:30;;;;;;;;;;;;;;;16.99;100.00;96192.78;1049260;28;19955;-72
2021/07/17 01:25:00;;;;;;;;;;;;;;;16.99;100.00;96198.19;1053513;28;20284;-76
2021/07/17 01:25:31;;;;;;;;;;;;;;;17.00;100.00;96201.72;1045161;28;19913;-72
2021/07/17 01:26:02;;;;;;;;;;;;;;;16.98;100.00;96202.00;1045084;28;20415;-72
2021/07/17 01:26:32;;;;;;;;;;;;;;;16.98;100.00;96203.91;1040769;28;19920;-72
2021/07/17 01:27:03;;;;;;;;;;;;;;;16.99;100.00;96197.38;1037348;28;19920;-73
2021/07/17 01:27:33;;;;;;;;;;;;;;;16.99;100.00;96200.88;1040928;28;19910;-72
2021/07/17 01:28:03;;;;;;;;;;;;;;;16.99;100.00;96192.00;1041007;28;20366;-72
2021/07/17 01:28:34;;;;;;;;;;;;;;;16.98;100.00;96201.19;1049278;28;19912;-72
2021/07/17 01:29:04;;;;;;;;;;;;;;;16.99;100.00;96203.59;1049008;28;19999;-72
2021/07/17 01:29:34;;;;;;;;;;;;;;;16.98;100.00;96196.59;1044961;28;19913;-72
2021/07/17 01:30:06;;;;;;;;;;;;;;;16.97;100.00;96195.00;1041006;28;19917;-72
2021/07/17 01:30:36;;;;;;;;;;;;;;;16.97;100.00;96188.81;1040727;28;19919;-72
2021/07/17 01:31:06;;;;;;;;;;;;;;;16.97;100.00;96197.69;1042686;28;20372;-72
2021/07/17 01:31:37;;;;;;;;;;;;;;;16.98;100.00;96203.91;1045292;28;19944;-72
2021/07/17 01:32:07;;;;;;;;;;;;;;;16.97;100.00;96205.81;1047504;28;19917;-72
2021/07/17 01:32:38;;;;;;;;;;;;;;;16.96;100.00;96196.13;1048946;28;20034;-72
2021/07/17 01:33:08;;;;;;;;;;;;;;;16.94;100.00;96198.34;1043491;28;20267;-72
2021/07/17 01:33:39;;;;;;;;;;;;;;;16.95;100.00;96193.72;1036585;28;19918;-72
2021/07/17 01:34:10;;;;;;;;;;;;;;;16.96;100.00;96196.13;1040887;28;20345;-72
2021/07/17 01:34:40;;;;;;;;;;;;;;;16.96;100.00;96196.13;1040892;28;19913;-72
2021/07/17 01:35:10;;;;;;;;;;;;;;;16.96;100.00;96196.13;1049043;28;19912;-72
2021/07/17 01:35:40;;;;;;;;;;;;;;;16.96;100.00;96200.72;1050711;28;19913;-72
2021/07/17 01:36:11;;;;;;;;;;;;;;;16.95;100.00;96189.13;1044681;28;19917;-72
2021/07/17 01:36:41;;;;;;;;;;;;;;;16.95;100.00;96202.63;1042419;28;19917;-72
2021/07/17 01:37:11;;;;;;;;;;;;;;;16.94;100.00;96201.03;1040986;28;19947;-73
2021/07/17 01:37:42;;;;;;;;;;;;;;;16.94;100.00;96197.50;1040989;28;19924;-72
2021/07/17 01:38:12;;;;;;;;;;;;;;;16.94;100.00;96198.34;1049275;28;19919;-72
2021/07/17 01:38:42;;;;;;;;;;;;;;;16.94;100.00;96203.72;1053355;28;19920;-72
2021/07/17 01:39:13;;;;;;;;;;;;;;;16.94;100.00;96205.59;1045002;28;20285;-72
2021/07/17 01:39:43;;;;;;;;;;;;;;;16.94;100.00;96206.44;1032747;28;19953;-72
2021/07/17 01:40:19;;;;;;;;;;;;;;;16.94;100.00;96202.91;1036841;28;19917;-71
2021/07/17 01:40:49;;;;;;;;;;;;;;;16.92;100.00;96208.63;1037600;28;19918;-71
2021/07/17 01:41:19;;;;;;;;;;;;;;;16.92;100.00;96200.53;1039170;28;20282;-71
2021/07/17 01:41:50;;;;;;;;;;;;;;;16.92;100.00;96205.13;1048408;28;19948;-71
2021/07/17 01:42:20;;;;;;;;;;;;;;;16.92;100.00;96202.44;1040887;28;19913;-71
2021/07/17 01:42:51;;;;;;;;;;;;;;;16.91;100.00;96198.94;1040870;28;19917;-72
2021/07/17 01:43:21;;;;;;;;;;;;;;;16.90;100.00;96205.44;1045118;28;19920;-71
2021/07/17 01:43:55;;;;;;;;;;;;;;;16.90;100.00;96200.03;1045014;28;20388;-71
2021/07/17 01:44:25;;;;;;;;;;;;;;;16.89;100.00;96199.25;1045428;28;20024;-71
2021/07/17 01:44:55;;;;;;;;;;;;;;;16.89;100.00;96204.66;1045301;28;19919;-71
2021/07/17 01:45:29;;;;;;;;;;;;;;;16.90;100.00;96205.44;1049298;28;20277;-71
2021/07/17 01:45:59;;;;;;;;;;;;;;;16.89;100.00;96199.25;1049213;28;19920;-71
2021/07/17 01:46:30;;;;;;;;;;;;;;;16.88;100.00;96189.53;1049284;28;19963;-71
2021/07/17 01:47:00;;;;;;;;;;;;;;;16.89;100.00;96201.16;1053383;28;19908;-71
2021/07/17 01:47:30;;;;;;;;;;;;;;;16.89;100.00;96206.56;1053394;28;19902;-71
2021/07/17 01:48:01;;;;;;;;;;;;;;;16.89;100.00;96206.56;1053388;28;19966;-72
2021/07/17 01:48:31;;;;;;;;;;;;;;;16.87;100.00;96203.34;1049163;28;19941;-72
2021/07/17 01:49:01;;;;;;;;;;;;;;;16.87;100.00;96206.84;1045050;28;19911;-71
2021/07/17 01:49:32;;;;;;;;;;;;;;;16.87;100.00;96203.34;1040943;28;19905;-71
2021/07/17 01:50:03;;;;;;;;;;;;;;;16.86;100.00;96201.75;1032760;28;19910;-71
2021/07/17 01:50:34;;;;;;;;;;;;;;;16.87;100.00;96206.03;1036781;28;19906;-71
2021/07/17 01:51:04;;;;;;;;;;;;;;;16.88;100.00;96199.53;1037032;28;19913;-72
2021/07/17 01:51:34;;;;;;;;;;;;;;;16.87;100.00;96204.13;1037243;28;19953;-71
2021/07/17 01:52:05;;;;;;;;;;;;;;;16.87;100.00;96204.13;1045166;28;19909;-72
2021/07/17 01:52:35;;;;;;;;;;;;;;;16.87;100.00;96206.84;1040887;28;19905;-72
2021/07/17 01:53:06;;;;;;;;;;;;;;;16.87;100.00;96208.72;1040957;28;19906;-72
2021/07/17 01:53:37;;;;;;;;;;;;;;;16.87;100.00;96208.72;1045072;28;20130;-72
2021/07/17 01:54:07;;;;;;;;;;;;;;;16.88;100.00;96211.13;1045105;28;19913;-72
2021/07/17 01:54:38;;;;;;;;;;;;;;;16.88;100.00;96215.72;1049203;28;19900;-72
2021/07/17 01:55:08;;;;;;;;;;;;;;;16.87;100.00;96214.13;1044956;28;20370;-72
2021/07/17 01:55:38;;;;;;;;;;;;;;;16.87;100.00;96208.72;1040941;28;19901;-72
2021/07/17 01:56:08;;;;;;;;;;;;;;;16.86;100.00;96207.94;1040916;28;19916;-72
2021/07/17 01:56:39;;;;;;;;;;;;;;;16.88;100.00;96211.13;1040990;28;19908;-72
2021/07/17 01:57:09;;;;;;;;;;;;;;;16.89;100.00;96215.44;1040907;28;20451;-72
2021/07/17 01:57:40;;;;;;;;;;;;;;;16.90;100.00;96216.25;1044987;28;19958;-72
2021/07/17 01:58:11;;;;;;;;;;;;;;;16.89;100.00;96210.03;1045086;28;19905;-72
2021/07/17 01:58:41;;;;;;;;;;;;;;;16.90;100.00;96210.84;1045137;28;19951;-72
2021/07/17 01:59:12;;;;;;;;;;;;;;;16.91;100.00;96214.34;1049127;28;20381;-72
2021/07/17 01:59:45;;;;;;;;;;;;;;;16.91;100.00;96211.63;1044558;28;19908;-72
2021/07/17 02:00:16;;;;;;;;;;;;;;;16.92;100.00;96216.72;1044331;28;20389;-72
2021/07/17 02:00:46;;;;;;;;;;;;;;;16.91;100.00;96212.44;1040783;28;19905;-72
2021/07/17 02:01:16;;;;;;;;;;;;;;;16.91;100.00;96209.72;1037230;28;19917;-72
2021/07/17 02:01:46;;;;;;;;;;;;;;;16.91;100.00;96214.34;1036697;28;19910;-72
2021/07/17 02:02:17;;;;;;;;;;;;;;;16.91;100.00;96212.44;1032651;28;19966;-72
2021/07/17 02:02:47;;;;;;;;;;;;;;;16.90;100.00;96208.13;1036823;28;19937;-72
2021/07/17 02:03:18;;;;;;;;;;;;;;;16.91;100.00;96198.94;1036801;28;19913;-72
2021/07/17 02:03:48;;;;;;;;;;;;;;;16.90;100.00;96202.75;1036797;28;19913;-72
2021/07/17 02:04:19;;;;;;;;;;;;;;;16.87;100.00;96206.84;1032728;28;20306;-72
2021/07/17 02:04:49;;;;;;;;;;;;;;;16.89;100.00;96201.94;1032846;28;19913;-72
2021/07/17 02:05:20;;;;;;;;;;;;;;;16.88;100.00;96199.53;1040999;28;20405;-72
2021/07/17 02:05:50;;;;;;;;;;;;;;;16.88;100.00;96204.94;1040935;28;19963;-72
2021/07/17 02:06:26;;;;;;;;;;;;;;;16.88;100.00;96204.94;1045067;28;19952;-72
2021/07/17 02:06:57;;;;;;;;;;;;;;;16.87;100.00;96203.34;1044973;28;20403;-71
2021/07/17 02:07:27;;;;;;;;;;;;;;;16.88;100.00;96205.72;1045807;28;19975;-71
2021/07/17 02:07:59;;;;;;;;;;;;;;;16.87;100.00;96206.84;1053275;28;19923;-71
2021/07/17 02:08:31;;;;;;;;;;;;;;;16.87;100.00;96208.72;1049174;28;19908;-71
2021/07/17 02:09:01;;;;;;;;;;;;;;;16.84;100.00;96199.34;1049098;28;20027;-71
2021/07/17 02:09:32;;;;;;;;;;;;;;;16.84;100.00;96204.75;1048726;28;19913;-71
2021/07/17 02:10:06;;;;;;;;;;;;;;;16.84;100.00;96209.38;1041301;28;19920;-71
2021/07/17 02:10:36;;;;;;;;;;;;;;;16.81;100.00;96204.56;1045035;28;19917;-71
2021/07/17 02:11:07;;;;;;;;;;;;;;;16.80;100.00;96203.75;1040807;28;19921;-71
2021/07/17 02:11:38;;;;;;;;;;;;;;;16.80;100.00;96198.38;1037401;28;19996;-71
2021/07/17 02:12:08;;;;;;;;;;;;;;;16.78;100.00;96203.25;1040787;28;19921;-71
2021/07/17 02:12:39;;;;;;;;;;;;;;;16.78;100.00;96195.16;1036870;28;19921;-72
2021/07/17 02:13:10;;;;;;;;;;;;;;;16.78;100.00;96199.75;1040944;28;19917;-72
2021/07/17 02:13:40;;;;;;;;;;;;;;;16.78;100.00;96194.38;1045048;28;19928;-71
2021/07/17 02:14:11;;;;;;;;;;;;;;;16.76;100.00;96199.28;1045798;28;19952;-72
2021/07/17 02:14:42;;;;;;;;;;;;;;;16.74;100.00;96188.78;1050241;28;19978;-72
2021/07/17 02:15:12;;;;;;;;;;;;;;;16.75;100.00;96197.69;1054688;28;19916;-72
2021/07/17 02:15:46;;;;;;;;;;;;;;;16.75;100.00;96192.28;1054439;28;19916;-72
2021/07/17 02:16:17;;;;;;;;;;;;;;;16.75;100.00;96195.00;1050931;28;19916;-72
2021/07/17 02:16:47;;;;;;;;;;;;;;;16.75;100.00;96195.00;1045454;28;19905;-72
2021/07/17 02:17:17;;;;;;;;;;;;;;;16.74;100.00;96188.78;1041093;28;19910;-72
2021/07/17 02:17:47;;;;;;;;;;;;;;;16.75;100.00;96193.09;1045077;28;20447;-72
2021/07/17 02:18:22;;;;;;;;;;;;;;;16.74;100.00;96188.00;1044998;28;19912;-72
2021/07/17 02:18:53;;;;;;;;;;;;;;;16.72;100.00;96193.69;1037300;28;19922;-72
2021/07/17 02:19:23;;;;;;;;;;;;;;;16.72;100.00;96184.78;1040329;28;19909;-72
2021/07/17 02:19:53;;;;;;;;;;;;;;;16.72;100.00;96190.19;1036783;28;19968;-72
2021/07/17 02:20:23;;;;;;;;;;;;;;;16.71;100.00;96189.38;1036729;28;19972;-72
2021/07/17 02:20:54;;;;;;;;;;;;;;;16.70;100.00;96193.16;1049075;28;19927;-72
2021/07/17 02:21:24;;;;;;;;;;;;;;;16.72;100.00;96185.59;1049217;28;19916;-72
2021/07/17 02:21:54;;;;;;;;;;;;;;;16.72;100.00;96182.09;1053333;28;19919;-72
2021/07/17 02:22:25;;;;;;;;;;;;;;;16.72;100.00;96182.88;1053256;28;19913;-72
2021/07/17 02:22:55;;;;;;;;;;;;;;;16.71;100.00;96191.25;1053124;28;19901;-72
2021/07/17 02:23:25;;;;;;;;;;;;;;;16.72;100.00;96192.88;1053271;28;19912;-72
2021/07/17 02:23:55;;;;;;;;;;;;;;;16.70;100.00;96184.28;1049018;28;19916;-72
2021/07/17 02:24:26;;;;;;;;;;;;;;;16.70;100.00;96189.66;1049098;28;19915;-72
2021/07/17 02:24:56;;;;;;;;;;;;;;;16.68;100.00;96186.47;1040801;28;19955;-72
2021/07/17 02:25:26;;;;;;;;;;;;;;;16.67;100.00;96192.97;1044885;28;19920;-72
2021/07/17 02:25:57;;;;;;;;;;;;;;;16.67;100.00;96190.25;1044854;28;19999;-72
2021/07/17 02:26:27;;;;;;;;;;;;;;;16.67;100.00;96190.25;1040740;28;19905;-72
2021/07/17 02:26:58;;;;;;;;;;;;;;;16.67;100.00;96188.38;1044860;28;19905;-72
2021/07/17 02:27:28;;;;;;;;;;;;;;;16.67;100.00;96188.38;1040921;28;19909;-72
2021/07/17 02:27:58;;;;;;;;;;;;;;;16.65;100.00;96190.56;1040769;28;19936;-72
2021/07/17 02:28:28;;;;;;;;;;;;;;;16.66;100.00;96185.97;1040786;28;19909;-72
2021/07/17 02:28:59;;;;;;;;;;;;;;;16.64;100.00;96187.09;1036690;28;19906;-72
2021/07/17 02:29:29;;;;;;;;;;;;;;;16.63;100.00;96187.38;1036746;28;19906;-72
2021/07/17 02:29:59;;;;;;;;;;;;;;;16.64;100.00;96194.38;1040776;28;19905;-72
2021/07/17 02:30:30;;;;;;;;;;;;;;;16.63;100.00;96192.75;1049151;28;19932;-72
2021/07/17 02:31:00;;;;;;;;;;;;;;;16.62;100.00;96191.97;1053183;28;20372;-72
2021/07/17 02:31:30;;;;;;;;;;;;;;;16.62;100.00;96196.56;1053216;28;20396;-72
2021/07/17 02:32:01;;;;;;;;;;;;;;;16.60;100.00;96188.78;1053205;28;20030;-72
2021/07/17 02:32:31;;;;;;;;;;;;;;;16.59;100.00;96192.59;1045292;28;19970;-72
2021/07/17 02:33:01;;;;;;;;;;;;;;;16.59;100.00;96192.59;1048929;28;19904;-71
2021/07/17 02:33:31;;;;;;;;;;;;;;;16.59;100.00;96191.78;1048810;28;19959;-72
2021/07/17 02:34:04;;;;;;;;;;;;;;;16.58;100.00;96196.41;1048985;28;19965;-72
2021/07/17 02:34:35;;;;;;;;;;;;;;;16.60;100.00;96198.78;1044901;28;20350;-72
2021/07/17 02:35:05;;;;;;;;;;;;;;;16.60;100.00;96194.19;1040686;28;19913;-72
2021/07/17 02:35:35;;;;;;;;;;;;;;;16.60;100.00;96194.19;1040786;28;20390;-72
2021/07/17 02:36:06;;;;;;;;;;;;;;;16.60;100.00;96188.00;1040642;28;19913;-72
2021/07/17 02:36:36;;;;;;;;;;;;;;;16.60;100.00;96194.19;1040670;28;19945;-72
2021/07/17 02:37:06;;;;;;;;;;;;;;;16.60;100.00;96190.69;1040708;28;19920;-72